McConnells, South Carolina
Current Conditions -  °F | °C
As of 9:35 AM on Thursday 29 Jan 2015 (Local Time) from KDCM Reporting Station
Clear Clear  
Wind Chill: 37°   Ceiling: Unl
Heat Index: 41°   Visibility: 10mi
Dew Point: 23°   Wind: 6mph
Humidity: 49%   Direction: 210°SSW
Pressure: 30.34"   Gusts: NA
Location:  34.87°N, 81.23°W
Report Text: KDCM 291435Z AUTO 21005KT 10SM CLR 05/M05 A3034 RMK AO2
Loading
Personal Weather Stations






























Interactive Weather Map New forecast layout! Learn more

10-Day Weather Forecast

Advertisements
Track Severe Weather on mobile